createdAt,value
2022-11-16T00:00:02.816Z,16.40
2022-11-16T00:02:39.431Z,16.40
2022-11-16T00:05:10.548Z,16.60
2022-11-16T00:07:41.637Z,16.70
2022-11-16T00:10:18.373Z,16.60
2022-11-16T00:12:46.851Z,16.70
2022-11-16T00:15:15.244Z,16.80
2022-11-16T00:17:48.928Z,16.80
2022-11-16T00:20:21.430Z,16.60
2022-11-16T00:22:50.024Z,16.70
2022-11-16T00:25:18.014Z,16.80
2022-11-16T00:27:48.417Z,16.80
2022-11-16T00:30:18.105Z,16.90
2022-11-16T00:32:46.097Z,17.00
2022-11-16T00:35:14.846Z,17.10
2022-11-16T00:37:45.491Z,17.10
2022-11-16T00:40:16.069Z,17.10
2022-11-16T00:42:48.044Z,17.10
2022-11-16T00:45:16.295Z,17.10
2022-11-16T00:47:44.846Z,17.00
2022-11-16T00:50:13.926Z,17.00
2022-11-16T00:52:42.774Z,16.90
2022-11-16T00:55:12.670Z,16.90
2022-11-16T00:57:41.254Z,16.90
2022-11-16T01:00:11.791Z,16.90
2022-11-16T01:02:41.731Z,16.90
2022-11-16T01:05:11.033Z,17.00
2022-11-16T01:07:40.916Z,16.90
2022-11-16T01:10:16.017Z,17.00
2022-11-16T01:12:47.659Z,17.00
2022-11-16T01:15:20.134Z,17.00
2022-11-16T01:17:51.691Z,17.00
2022-11-16T01:20:23.911Z,16.90
2022-11-16T01:22:53.687Z,16.90
2022-11-16T01:25:23.297Z,16.90
2022-11-16T01:27:51.479Z,16.70
2022-11-16T01:30:31.928Z,16.90
2022-11-16T01:33:08.794Z,16.90
2022-11-16T01:35:37.451Z,16.80
2022-11-16T01:38:05.983Z,16.80
2022-11-16T01:40:37.408Z,16.90
2022-11-16T01:43:17.084Z,16.90
2022-11-16T01:45:47.044Z,16.90
2022-11-16T01:48:38.690Z,16.90
2022-11-16T01:51:10.734Z,16.80
2022-11-16T01:56:28.519Z,16.80
2022-11-16T01:59:09.255Z,16.90
2022-11-16T02:01:38.287Z,16.70
2022-11-16T02:04:07.027Z,16.80
2022-11-16T02:06:48.160Z,16.70
2022-11-16T02:09:58.121Z,16.80
2022-11-16T02:13:14.816Z,16.70
2022-11-16T02:15:55.524Z,16.90
2022-11-16T02:18:38.945Z,16.60
2022-11-16T02:21:34.622Z,16.60
2022-11-16T02:24:45.099Z,16.60
2022-11-16T02:27:35.208Z,16.70
2022-11-16T02:30:06.187Z,16.60
2022-11-16T02:32:39.060Z,16.70
2022-11-16T02:35:14.692Z,16.60
2022-11-16T02:37:48.063Z,16.60
2022-11-16T02:40:22.803Z,16.60
2022-11-16T02:42:54.630Z,16.60
2022-11-16T02:45:31.260Z,16.60
2022-11-16T02:48:02.749Z,16.50
2022-11-16T02:50:33.012Z,16.30
2022-11-16T02:53:03.395Z,16.10
2022-11-16T02:55:44.277Z,15.80
2022-11-16T02:58:15.393Z,15.70
2022-11-16T03:00:52.036Z,15.50
2022-11-16T03:03:29.455Z,15.30
2022-11-16T03:06:03.437Z,15.10
2022-11-16T03:08:36.327Z,15.20
2022-11-16T03:11:34.316Z,15.30
2022-11-16T03:14:09.314Z,15.20
2022-11-16T03:16:41.824Z,15.20
2022-11-16T03:19:14.855Z,15.20
2022-11-16T03:21:48.633Z,15.40
2022-11-16T03:24:17.290Z,15.40
2022-11-16T03:26:54.855Z,15.50
2022-11-16T03:29:31.351Z,15.70
2022-11-16T03:32:13.902Z,15.80
2022-11-16T03:34:45.346Z,15.90
2022-11-16T03:37:15.122Z,15.90
2022-11-16T03:39:45.180Z,15.80
2022-11-16T03:42:15.478Z,15.90
2022-11-16T03:44:57.391Z,15.90
2022-11-16T03:47:31.134Z,15.90
2022-11-16T03:49:59.686Z,15.90
2022-11-16T03:52:28.108Z,15.50
2022-11-16T03:54:56.854Z,15.30
2022-11-16T03:57:27.102Z,15.50
2022-11-16T03:59:59.213Z,15.70
2022-11-16T04:02:29.682Z,15.80
2022-11-16T04:05:17.098Z,15.90
2022-11-16T04:08:07.699Z,16.00
2022-11-16T04:10:53.514Z,16.00
2022-11-16T04:13:47.306Z,15.90
2022-11-16T04:16:35.815Z,15.80
2022-11-16T04:19:27.150Z,15.60
2022-11-16T04:22:17.432Z,15.20
2022-11-16T04:24:49.898Z,14.90
2022-11-16T04:27:36.629Z,14.80
2022-11-16T04:30:06.011Z,14.90
2022-11-16T04:33:00.585Z,14.70
2022-11-16T04:35:48.595Z,14.70
2022-11-16T04:38:17.695Z,14.70
2022-11-16T04:40:46.071Z,14.90
2022-11-16T04:43:13.708Z,14.90
2022-11-16T04:46:02.357Z,15.00
2022-11-16T04:48:37.865Z,14.90
2022-11-16T04:51:10.075Z,14.60
2022-11-16T04:53:39.592Z,14.70
2022-11-16T04:56:16.303Z,15.00
2022-11-16T04:58:47.088Z,14.50
2022-11-16T05:01:17.413Z,14.70
2022-11-16T05:03:45.527Z,14.60
2022-11-16T05:06:15.802Z,14.70
2022-11-16T05:08:43.923Z,14.40
2022-11-16T05:11:13.073Z,14.30
2022-11-16T05:13:41.363Z,14.60
2022-11-16T05:16:09.826Z,14.50
2022-11-16T05:18:38.750Z,14.50
2022-11-16T05:21:06.641Z,14.50
2022-11-16T05:23:57.748Z,14.40
2022-11-16T05:26:31.416Z,14.20
2022-11-16T05:29:00.380Z,14.70
2022-11-16T05:31:35.055Z,14.50
2022-11-16T05:34:06.933Z,14.50
2022-11-16T05:36:35.893Z,14.50
2022-11-16T05:39:06.292Z,14.70
2022-11-16T05:41:37.559Z,14.50
2022-11-16T05:44:05.750Z,14.30
2022-11-16T05:46:41.635Z,14.40
2022-11-16T05:49:19.606Z,14.40
2022-11-16T05:51:48.687Z,14.30
2022-11-16T05:54:22.078Z,14.20
2022-11-16T05:56:51.824Z,14.10
2022-11-16T05:59:22.817Z,13.60
2022-11-16T06:01:55.087Z,13.50
2022-11-16T06:04:24.013Z,14.10
2022-11-16T06:06:54.560Z,14.00
2022-11-16T06:09:27.473Z,14.00
2022-11-16T06:11:57.436Z,13.70
2022-11-16T06:14:28.673Z,13.10
2022-11-16T06:16:57.764Z,13.20
2022-11-16T06:19:32.333Z,13.30
2022-11-16T06:22:01.220Z,13.50
2022-11-16T06:24:32.362Z,13.80
2022-11-16T06:27:03.344Z,13.80
2022-11-16T06:29:31.813Z,14.10
2022-11-16T06:31:59.881Z,13.90
2022-11-16T06:34:27.872Z,13.90
2022-11-16T06:36:57.640Z,13.60
2022-11-16T06:39:26.348Z,13.90
2022-11-16T06:41:58.774Z,13.80
2022-11-16T06:44:30.258Z,13.80
2022-11-16T06:47:02.331Z,13.60
2022-11-16T06:49:32.028Z,13.80
2022-11-16T06:52:03.078Z,14.10
2022-11-16T06:54:33.464Z,13.80
2022-11-16T06:57:03.222Z,13.90
2022-11-16T07:02:14.770Z,13.90
2022-11-16T07:04:45.851Z,13.80
2022-11-16T07:07:16.557Z,14.10
2022-11-16T07:09:45.040Z,14.00
2022-11-16T07:12:18.714Z,13.90
2022-11-16T07:14:46.994Z,13.90
2022-11-16T07:17:17.491Z,14.00
2022-11-16T07:19:46.598Z,13.90
2022-11-16T07:24:59.905Z,13.90
2022-11-16T07:27:30.353Z,14.20
2022-11-16T07:30:01.095Z,14.20
2022-11-16T07:33:00.013Z,14.30
2022-11-16T07:35:49.281Z,14.20
2022-11-16T07:38:19.460Z,13.80
2022-11-16T07:40:47.539Z,13.80
2022-11-16T07:43:22.916Z,14.00
2022-11-16T07:49:09.833Z,13.80
2022-11-16T07:51:52.193Z,14.10
2022-11-16T07:54:35.079Z,14.20
2022-11-16T07:57:04.011Z,14.10
2022-11-16T07:59:35.912Z,13.90
2022-11-16T08:02:13.180Z,13.90
2022-11-16T08:04:43.474Z,13.60
2022-11-16T08:07:16.379Z,13.50
2022-11-16T08:09:51.913Z,13.40
2022-11-16T08:12:20.060Z,13.40
2022-11-16T08:14:52.579Z,13.40
2022-11-16T08:17:20.854Z,13.50
2022-11-16T08:19:51.324Z,13.70
2022-11-16T08:22:22.062Z,13.80
2022-11-16T08:24:50.088Z,13.60
2022-11-16T08:27:24.794Z,13.60
2022-11-16T08:29:57.444Z,13.30
2022-11-16T08:32:26.005Z,13.40
2022-11-16T08:34:57.490Z,13.60
2022-11-16T08:37:28.321Z,13.80
2022-11-16T08:39:56.728Z,13.80
2022-11-16T08:42:25.050Z,14.00
2022-11-16T08:44:56.543Z,13.90
2022-11-16T08:47:25.959Z,14.10
2022-11-16T08:49:59.858Z,14.10
2022-11-16T08:52:30.785Z,14.10
2022-11-16T08:55:01.155Z,14.20
2022-11-16T08:57:29.521Z,14.10
2022-11-16T09:00:01.326Z,13.90
2022-11-16T09:02:30.672Z,13.80
2022-11-16T09:04:58.706Z,13.90
2022-11-16T09:07:27.223Z,14.00
2022-11-16T09:09:57.552Z,14.00
2022-11-16T09:12:32.427Z,13.30
2022-11-16T09:15:02.806Z,13.40
2022-11-16T09:17:32.306Z,13.70
2022-11-16T09:20:00.918Z,13.70
2022-11-16T09:22:28.969Z,13.70
2022-11-16T09:24:57.447Z,13.70
2022-11-16T09:27:32.792Z,13.70
2022-11-16T09:30:01.257Z,13.60
2022-11-16T09:32:31.394Z,13.10
2022-11-16T09:35:01.216Z,12.60
2022-11-16T09:37:29.300Z,12.90
2022-11-16T09:39:58.224Z,12.70
2022-11-16T09:42:42.053Z,12.80
2022-11-16T09:45:18.240Z,12.90
2022-11-16T09:47:49.965Z,13.20
2022-11-16T09:50:32.698Z,13.40
2022-11-16T09:53:08.505Z,13.40
2022-11-16T09:55:44.431Z,13.50
2022-11-16T09:58:17.041Z,13.70
2022-11-16T10:00:52.458Z,13.70
2022-11-16T10:03:20.733Z,13.60
2022-11-16T10:05:58.466Z,13.50
2022-11-16T10:08:35.521Z,13.40
2022-11-16T10:11:37.704Z,13.70
2022-11-16T10:14:27.515Z,14.00
2022-11-16T10:17:02.940Z,14.10
2022-11-16T10:19:39.585Z,14.30
2022-11-16T10:22:22.630Z,14.40
2022-11-16T10:24:58.682Z,14.30
2022-11-16T10:27:40.488Z,14.40
2022-11-16T10:30:11.900Z,14.50
2022-11-16T10:32:46.701Z,14.50
2022-11-16T10:35:20.097Z,14.30
2022-11-16T10:37:51.345Z,14.10
2022-11-16T10:40:25.627Z,14.20
2022-11-16T10:43:08.207Z,14.40
2022-11-16T10:45:44.334Z,14.60
2022-11-16T10:48:18.565Z,14.50
2022-11-16T10:50:51.248Z,14.40
2022-11-16T10:53:29.676Z,14.50
2022-11-16T10:56:12.696Z,14.70
2022-11-16T10:58:58.972Z,15.20
2022-11-16T11:01:33.517Z,15.90
2022-11-16T11:04:18.969Z,16.50
2022-11-16T11:06:51.269Z,17.40
2022-11-16T11:09:29.731Z,17.80
2022-11-16T11:12:20.607Z,18.60
2022-11-16T11:15:08.157Z,19.70
2022-11-16T11:17:37.888Z,20.90
2022-11-16T11:20:08.187Z,21.30
2022-11-16T11:22:44.604Z,21.20
2022-11-16T11:25:25.576Z,21.30
2022-11-16T11:28:05.814Z,22.10
2022-11-16T11:30:36.563Z,23.40
2022-11-16T11:33:12.269Z,23.70
2022-11-16T11:35:42.796Z,24.00
2022-11-16T11:38:16.170Z,23.80
2022-11-16T11:40:58.160Z,24.00
2022-11-16T11:43:26.710Z,23.40
2022-11-16T11:46:04.543Z,22.90
2022-11-16T11:48:42.205Z,23.40
2022-11-16T11:51:16.649Z,24.00
2022-11-16T11:53:52.960Z,24.60
2022-11-16T11:56:23.289Z,24.30
2022-11-16T11:58:54.231Z,24.00
2022-11-16T12:01:53.566Z,24.00
2022-11-16T12:05:19.048Z,23.90
2022-11-16T12:08:02.754Z,23.50
2022-11-16T12:10:41.202Z,23.40
2022-11-16T12:13:38.031Z,22.60
2022-11-16T12:16:14.864Z,22.60
2022-11-16T12:19:04.521Z,23.60
2022-11-16T12:21:44.072Z,23.60
2022-11-16T12:24:29.417Z,24.00
2022-11-16T12:27:07.404Z,23.60
2022-11-16T12:29:46.034Z,21.40
2022-11-16T12:32:29.030Z,20.10
2022-11-16T12:35:08.547Z,20.10
2022-11-16T12:37:46.692Z,21.00
2022-11-16T12:40:36.787Z,22.00
2022-11-16T12:43:15.823Z,23.30
2022-11-16T12:46:07.117Z,24.40
2022-11-16T12:49:07.951Z,25.30
2022-11-16T12:51:50.084Z,24.70
2022-11-16T12:54:38.636Z,25.50
2022-11-16T12:57:15.083Z,25.70
2022-11-16T13:00:09.480Z,25.60
2022-11-16T13:02:58.045Z,25.20
2022-11-16T13:05:41.118Z,25.50
2022-11-16T13:08:15.847Z,25.20
2022-11-16T13:10:52.038Z,25.60
2022-11-16T13:13:36.267Z,24.50
2022-11-16T13:16:07.812Z,24.30
2022-11-16T13:18:44.820Z,24.40
2022-11-16T13:21:23.580Z,25.10
2022-11-16T13:24:04.250Z,25.90
2022-11-16T13:26:41.797Z,26.00
2022-11-16T13:29:20.148Z,26.60
2022-11-16T13:31:56.587Z,25.50
2022-11-16T13:34:29.923Z,26.10
2022-11-16T13:37:00.554Z,25.90
2022-11-16T13:40:04.809Z,25.70
2022-11-16T13:42:35.472Z,24.00
2022-11-16T13:45:09.717Z,23.20
2022-11-16T13:47:38.595Z,22.10
2022-11-16T13:50:19.548Z,21.50
2022-11-16T13:55:44.158Z,21.00
2022-11-16T13:58:20.729Z,20.60
2022-11-16T14:00:58.639Z,20.50
2022-11-16T14:03:30.983Z,20.40
2022-11-16T14:06:01.901Z,20.40
2022-11-16T14:08:50.391Z,20.40
2022-11-16T14:11:36.738Z,20.20
2022-11-16T14:14:06.667Z,20.10
2022-11-16T14:16:49.384Z,20.00
2022-11-16T14:19:56.736Z,19.80
2022-11-16T14:22:42.803Z,19.90
2022-11-16T14:25:22.348Z,19.90
2022-11-16T14:27:58.963Z,20.00
2022-11-16T14:30:31.878Z,20.00
2022-11-16T14:33:00.139Z,19.80
2022-11-16T14:35:33.741Z,19.60
2022-11-16T14:38:07.442Z,19.60
2022-11-16T14:40:44.012Z,19.60
2022-11-16T14:43:19.562Z,19.50
2022-11-16T14:45:49.946Z,19.40
2022-11-16T14:48:23.739Z,19.40
2022-11-16T14:51:03.755Z,19.40
2022-11-16T14:53:38.726Z,19.10
2022-11-16T14:56:18.946Z,19.30
2022-11-16T14:58:56.741Z,19.20
2022-11-16T15:01:27.896Z,19.10
2022-11-16T15:04:02.629Z,19.00
2022-11-16T15:06:36.545Z,19.00
2022-11-16T15:09:06.706Z,18.90
2022-11-16T15:11:56.522Z,18.90
2022-11-16T15:14:30.592Z,18.90
2022-11-16T15:17:00.991Z,18.80
2022-11-16T15:19:39.239Z,18.60
2022-11-16T15:22:18.558Z,18.70
2022-11-16T15:24:55.594Z,18.70
2022-11-16T15:27:37.994Z,18.60
2022-11-16T15:30:15.702Z,18.60
2022-11-16T15:32:46.998Z,18.60
2022-11-16T15:35:20.829Z,18.60
2022-11-16T15:37:50.133Z,18.60
2022-11-16T15:40:19.493Z,18.50
2022-11-16T15:42:48.203Z,18.40
2022-11-16T15:45:25.235Z,18.40
2022-11-16T15:47:54.628Z,18.50
2022-11-16T15:50:24.335Z,18.40
2022-11-16T15:52:55.399Z,18.00
2022-11-16T15:55:31.676Z,17.90
2022-11-16T15:58:03.496Z,17.90
2022-11-16T16:00:36.813Z,17.80
2022-11-16T16:03:21.733Z,17.80
2022-11-16T16:05:51.089Z,17.70
2022-11-16T16:08:28.352Z,17.50
2022-11-16T16:11:03.808Z,17.60
2022-11-16T16:13:35.887Z,17.60
2022-11-16T16:16:24.156Z,17.50
2022-11-16T16:18:53.461Z,17.60
2022-11-16T16:21:22.625Z,17.70
2022-11-16T16:23:53.946Z,17.70
2022-11-16T16:26:26.222Z,17.70
2022-11-16T16:28:54.718Z,17.70
2022-11-16T16:31:22.889Z,17.60
2022-11-16T16:33:50.994Z,17.60
2022-11-16T16:36:19.370Z,17.50
2022-11-16T16:38:50.304Z,17.40
2022-11-16T16:41:24.330Z,17.30
2022-11-16T16:44:01.562Z,17.60
2022-11-16T16:46:30.146Z,17.40
2022-11-16T16:48:58.294Z,17.30
2022-11-16T16:51:28.643Z,17.40
2022-11-16T16:53:58.102Z,17.40
2022-11-16T16:56:26.188Z,17.30
2022-11-16T16:58:56.126Z,17.40
2022-11-16T17:01:24.830Z,17.50
2022-11-16T17:03:52.806Z,17.40
2022-11-16T17:06:24.920Z,17.30
2022-11-16T17:08:53.206Z,17.30
2022-11-16T17:11:21.189Z,17.40
2022-11-16T17:13:49.217Z,17.30
2022-11-16T17:16:22.189Z,17.40
2022-11-16T17:18:56.168Z,17.20
2022-11-16T17:21:24.273Z,17.30
2022-11-16T17:23:52.534Z,17.20
2022-11-16T17:26:23.776Z,17.10
2022-11-16T17:28:56.050Z,17.20
2022-11-16T17:31:28.281Z,17.10
2022-11-16T17:33:57.410Z,17.00
2022-11-16T17:36:28.462Z,17.10
2022-11-16T17:38:56.970Z,17.00
2022-11-16T17:41:27.802Z,17.10
2022-11-16T17:43:56.485Z,17.10
2022-11-16T17:46:28.523Z,16.90
2022-11-16T17:48:57.561Z,16.80
2022-11-16T17:51:27.216Z,16.80
2022-11-16T17:53:55.215Z,16.70
2022-11-16T17:56:26.895Z,16.80
2022-11-16T17:58:55.908Z,16.80
2022-11-16T18:01:26.528Z,16.70
2022-11-16T18:03:55.554Z,16.60
2022-11-16T18:06:25.973Z,16.70
2022-11-16T18:08:55.216Z,16.80
2022-11-16T18:11:25.776Z,16.80
2022-11-16T18:13:56.717Z,16.70
2022-11-16T18:16:28.233Z,16.70
2022-11-16T18:18:58.595Z,16.70
2022-11-16T18:21:29.445Z,16.70
2022-11-16T18:24:00.452Z,16.70
2022-11-16T18:26:28.554Z,16.70
2022-11-16T18:28:59.456Z,16.70
2022-11-16T18:31:29.689Z,16.70
2022-11-16T18:33:58.897Z,16.60
2022-11-16T18:36:26.885Z,16.60
2022-11-16T18:39:02.256Z,16.60
2022-11-16T18:41:31.185Z,16.60
2022-11-16T18:44:00.675Z,16.50
2022-11-16T18:46:31.622Z,16.50
2022-11-16T18:49:05.891Z,16.50
2022-11-16T18:51:34.370Z,16.40
2022-11-16T18:54:02.349Z,16.40
2022-11-16T18:56:30.790Z,16.40
2022-11-16T18:58:59.997Z,16.30
2022-11-16T19:01:28.709Z,16.40
2022-11-16T19:04:02.075Z,16.30
2022-11-16T19:06:32.571Z,16.30
2022-11-16T19:09:02.190Z,16.30
2022-11-16T19:11:30.260Z,16.40
2022-11-16T19:14:00.403Z,16.30
2022-11-16T19:16:28.890Z,16.20
2022-11-16T19:18:58.814Z,16.20
2022-11-16T19:21:30.125Z,16.20
2022-11-16T19:23:58.677Z,16.30
2022-11-16T19:26:28.318Z,16.30
2022-11-16T19:28:56.583Z,16.30
2022-11-16T19:31:26.014Z,16.30
2022-11-16T19:34:00.621Z,16.20
2022-11-16T19:36:38.484Z,16.30
2022-11-16T19:39:07.114Z,16.20
2022-11-16T19:41:35.726Z,16.10
2022-11-16T19:44:06.064Z,16.20
2022-11-16T19:46:35.816Z,16.10
2022-11-16T19:49:08.566Z,16.00
2022-11-16T19:51:38.011Z,16.10
2022-11-16T19:54:06.656Z,16.00
2022-11-16T19:56:34.666Z,16.00
2022-11-16T19:59:06.584Z,15.90
2022-11-16T20:01:34.728Z,15.70
2022-11-16T20:04:07.598Z,15.80
2022-11-16T20:06:38.398Z,15.90
2022-11-16T20:09:11.184Z,15.80
2022-11-16T20:11:40.674Z,15.80
2022-11-16T20:14:11.922Z,15.80
2022-11-16T20:16:42.054Z,15.70
2022-11-16T20:19:14.502Z,15.70
2022-11-16T20:21:46.840Z,15.50
2022-11-16T20:24:16.421Z,15.50
2022-11-16T20:26:46.783Z,15.40
2022-11-16T20:29:19.108Z,15.50
2022-11-16T20:31:49.971Z,15.60
2022-11-16T20:34:27.384Z,15.40
2022-11-16T20:36:58.438Z,15.40
2022-11-16T20:39:26.678Z,15.50
2022-11-16T20:41:57.161Z,15.40
2022-11-16T20:44:26.055Z,15.60
2022-11-16T20:46:54.036Z,15.60
2022-11-16T20:49:23.444Z,15.50
2022-11-16T20:51:52.925Z,15.40
2022-11-16T20:54:21.809Z,15.40
2022-11-16T20:56:50.397Z,15.40
2022-11-16T20:59:19.874Z,15.40
2022-11-16T21:01:49.030Z,15.60
2022-11-16T21:04:17.323Z,15.60
2022-11-16T21:06:47.550Z,15.50
2022-11-16T21:09:22.873Z,15.50
2022-11-16T21:12:09.858Z,15.30
2022-11-16T21:14:38.307Z,15.10
2022-11-16T21:17:06.286Z,15.10
2022-11-16T21:19:34.765Z,15.10
2022-11-16T21:22:04.225Z,15.10
2022-11-16T21:24:33.482Z,15.10
2022-11-16T21:27:01.469Z,15.10
2022-11-16T21:29:37.613Z,15.30
2022-11-16T21:32:06.176Z,15.20
2022-11-16T21:34:39.807Z,15.20
2022-11-16T21:37:12.285Z,15.00
2022-11-16T21:39:41.089Z,15.10
2022-11-16T21:42:11.278Z,15.10
2022-11-16T21:44:46.119Z,15.00
2022-11-16T21:47:14.667Z,14.80
2022-11-16T21:49:59.509Z,14.70
2022-11-16T21:52:33.150Z,14.50
2022-11-16T21:55:01.316Z,14.50
2022-11-16T21:57:29.348Z,14.60
2022-11-16T21:59:58.314Z,14.60
2022-11-16T22:02:26.355Z,14.70
2022-11-16T22:05:12.923Z,14.70
2022-11-16T22:07:43.231Z,14.80
2022-11-16T22:10:13.487Z,14.70
2022-11-16T22:12:41.533Z,15.00
2022-11-16T22:15:12.550Z,15.00
2022-11-16T22:17:44.310Z,15.00
2022-11-16T22:20:12.722Z,15.00
2022-11-16T22:22:42.094Z,14.80
2022-11-16T22:25:11.344Z,14.80
2022-11-16T22:28:05.640Z,14.70
2022-11-16T22:30:28.426Z,14.80
2022-11-16T22:35:49.750Z,15.00
2022-11-16T22:38:30.182Z,14.80
2022-11-16T22:41:01.549Z,14.70
2022-11-16T22:43:31.195Z,14.80
2022-11-16T22:46:01.772Z,14.80
2022-11-16T22:48:32.009Z,14.70
2022-11-16T22:51:07.590Z,14.60
2022-11-16T22:53:39.361Z,14.50
2022-11-16T22:56:10.409Z,14.50
2022-11-16T22:58:39.529Z,14.60
2022-11-16T23:01:11.937Z,14.50
2022-11-16T23:03:46.009Z,14.50
2022-11-16T23:06:14.251Z,14.60
2022-11-16T23:08:43.640Z,14.60
2022-11-16T23:11:38.958Z,14.60
2022-11-16T23:14:30.105Z,14.50
2022-11-16T23:17:02.381Z,14.50
2022-11-16T23:19:51.010Z,14.60
2022-11-16T23:22:39.848Z,14.60
2022-11-16T23:25:30.419Z,14.80
2022-11-16T23:28:06.233Z,14.80
2022-11-16T23:30:36.677Z,15.00
2022-11-16T23:33:05.968Z,14.90
2022-11-16T23:35:34.362Z,14.70
2022-11-16T23:38:04.789Z,14.60
2022-11-16T23:40:36.541Z,14.50
2022-11-16T23:43:26.932Z,14.50
2022-11-16T23:45:56.033Z,14.60
2022-11-16T23:48:24.052Z,14.50
2022-11-16T23:50:54.562Z,14.40
2022-11-16T23:53:23.866Z,14.40
2022-11-16T23:55:53.194Z,14.40
2022-11-16T23:58:21.605Z,14.40
